Time;durP1;ratioP1;P1;durP2;ratioP2;P2;SDS_P1;SDS_P2;PMS_P1;PMS_P2;Temp;Humidity;BMP_temperature;BMP_pressure;BME280_temperature;BME280_humidity;BME280_pressure;Samples;Min_cycle;Max_cycle;Signal;HPM_P1;HPM_P2
2022/04/15 00:00:38;;;;;;;27.87;13.43;;;;;;;6.73;98.55;102350.22;5015651;28;20493;-91
2022/04/15 00:03:05;;;;;;;24.75;13.18;;;;;;;6.67;98.78;102354.50;5012523;28;20053;-91
2022/04/15 00:05:45;;;;;;;21.50;12.85;;;;;;;6.59;98.26;102355.47;5014166;28;20064;-91
2022/04/15 00:08:11;;;;;;;24.00;12.82;;;;;;;6.55;98.76;102342.75;5013504;28;20392;-91
2022/04/15 00:10:48;;;;;;;23.23;13.55;;;;;;;6.50;98.87;102357.44;5013475;28;20121;-91
2022/04/15 00:13:19;;;;;;;27.20;12.82;;;;;;;6.43;98.77;102348.56;5013862;28;20030;-91
2022/04/15 00:15:45;;;;;;;24.13;12.77;;;;;;;6.38;98.60;102352.84;4996355;28;20029;-91
2022/04/15 00:18:10;;;;;;;24.47;12.93;;;;;;;6.32;99.05;102344.59;5013774;28;20372;-91
2022/04/15 00:20:36;;;;;;;28.80;14.53;;;;;;;6.29;99.21;102346.81;5014602;28;20029;-91
2022/04/15 00:23:01;;;;;;;25.92;13.10;;;;;;;6.24;99.38;102350.06;5015089;28;20033;-91
2022/04/15 00:25:27;;;;;;;26.13;13.13;;;;;;;6.20;99.34;102351.44;5021857;28;20026;-91
2022/04/15 00:27:54;;;;;;;24.70;13.43;;;;;;;6.21;100.00;102353.91;5003357;28;20033;-91
2022/04/15 00:30:19;;;;;;;24.10;13.10;;;;;;;6.19;100.00;102353.31;5010457;28;20033;-91
2022/04/15 00:32:45;;;;;;;23.50;12.87;;;;;;;6.18;100.00;102358.81;5020467;28;20416;-92
2022/04/15 00:35:12;;;;;;;26.75;13.82;;;;;;;6.14;100.00;102358.38;5023301;28;20148;-91
2022/04/15 00:37:37;;;;;;;22.87;13.40;;;;;;;6.12;100.00;102355.06;5027185;28;20033;-90
2022/04/15 00:40:06;;;;;;;25.90;13.37;;;;;;;6.04;100.00;102358.69;5028693;28;20319;-92
2022/04/15 00:42:31;;;;;;;25.13;13.87;;;;;;;6.00;100.00;102369.91;5028394;28;20048;-90
2022/04/15 00:44:58;;;;;;;24.73;12.97;;;;;;;5.96;100.00;102371.25;5025754;28;20285;-91
2022/04/15 00:47:47;;;;;;;28.83;14.18;;;;;;;5.89;100.00;102376.50;5018170;28;20032;-93
2022/04/15 00:50:14;;;;;;;30.10;14.77;;;;;;;5.85;100.00;102373.38;5014212;28;20041;-91
2022/04/15 00:52:44;;;;;;;31.40;14.30;;;;;;;5.81;100.00;102364.16;5015204;28;20061;-92
2022/04/15 00:55:11;;;;;;;28.20;14.55;;;;;;;5.81;100.00;102374.78;5015742;28;20018;-92
2022/04/15 00:57:42;;;;;;;29.53;14.40;;;;;;;5.80;100.00;102378.47;5014891;28;20045;-92
2022/04/15 01:00:09;;;;;;;28.47;14.70;;;;;;;5.77;100.00;102373.50;5013058;28;20288;-90
2022/04/15 01:02:36;;;;;;;29.58;14.27;;;;;;;5.79;100.00;102376.81;5014407;28;20034;-91
2022/04/15 01:05:04;;;;;;;29.10;14.88;;;;;;;5.80;100.00;102372.31;5014857;28;20044;-91
2022/04/15 01:07:33;;;;;;;26.08;14.95;;;;;;;5.76;100.00;102378.00;5016236;28;20034;-91
2022/04/15 01:10:01;;;;;;;28.38;15.18;;;;;;;5.72;100.00;102371.41;5033219;28;20060;-91
2022/04/15 01:12:29;;;;;;;29.80;15.40;;;;;;;5.75;100.00;102383.50;5018146;28;20049;-91
2022/04/15 01:14:59;;;;;;;28.50;14.90;;;;;;;5.72;100.00;102381.22;5015993;28;20057;-91
2022/04/15 01:17:24;;;;;;;29.95;15.07;;;;;;;5.65;100.00;102378.47;5016548;28;20140;-92
2022/04/15 01:19:49;;;;;;;30.77;15.10;;;;;;;5.58;100.00;102378.41;5015727;28;20084;-92
2022/04/15 01:22:15;;;;;;;29.73;15.70;;;;;;;5.51;100.00;102380.16;5018017;28;20053;-92
2022/04/15 01:24:40;;;;;;;31.48;14.82;;;;;;;5.49;100.00;102382.16;5026986;28;20006;-92
2022/04/15 01:27:07;;;;;;;28.87;14.73;;;;;;;5.41;100.00;102376.97;5018495;28;20044;-93
2022/04/15 01:29:39;;;;;;;30.08;15.18;;;;;;;5.38;100.00;102385.31;5015990;28;20033;-92
2022/04/15 01:32:07;;;;;;;32.15;15.35;;;;;;;5.33;100.00;102383.22;5016158;28;20037;-92
2022/04/15 01:34:36;;;;;;;35.10;17.50;;;;;;;5.37;100.00;102383.66;5015672;28;20025;-92
2022/04/15 01:37:03;;;;;;;30.33;15.60;;;;;;;5.28;100.00;102383.78;5013849;28;20080;-92
2022/04/15 01:39:31;;;;;;;33.80;15.77;;;;;;;5.30;100.00;102380.91;5015016;28;20315;-92
2022/04/15 01:41:56;;;;;;;32.47;16.10;;;;;;;5.21;100.00;102382.00;5013540;28;20028;-91
2022/04/15 01:44:22;;;;;;;30.90;15.73;;;;;;;5.18;100.00;102388.53;5014934;28;20081;-92
2022/04/15 01:46:47;;;;;;;30.30;15.20;;;;;;;5.12;100.00;102389.25;5013163;28;20061;-92
2022/04/15 01:49:12;;;;;;;33.53;15.80;;;;;;;5.13;100.00;102393.53;5014002;28;20033;-91
2022/04/15 01:51:37;;;;;;;31.17;16.03;;;;;;;5.14;100.00;102390.72;5014341;28;20030;-91
2022/04/15 01:54:04;;;;;;;31.07;15.87;;;;;;;5.13;100.00;102394.38;5014042;28;20065;-91
2022/04/15 01:56:31;;;;;;;30.15;15.80;;;;;;;5.11;100.00;102400.91;5014994;28;20045;-91
2022/04/15 01:58:57;;;;;;;32.88;16.50;;;;;;;5.07;100.00;102399.59;5015634;28;20045;-92
2022/04/15 02:01:25;;;;;;;35.27;16.70;;;;;;;5.05;100.00;102396.31;5016923;28;20374;-92
2022/04/15 02:03:50;;;;;;;34.83;16.88;;;;;;;5.01;100.00;102398.50;5014937;28;20034;-91
2022/04/15 02:06:15;;;;;;;33.40;16.00;;;;;;;4.98;100.00;102402.34;5006729;28;20041;-91
2022/04/15 02:08:41;;;;;;;34.37;16.40;;;;;;;4.96;100.00;102407.00;5016479;28;20065;-90
2022/04/15 02:11:06;;;;;;;33.25;15.98;;;;;;;4.98;100.00;102405.00;5027213;28;20005;-92
2022/04/15 02:13:32;;;;;;;31.47;16.83;;;;;;;4.97;100.00;102403.34;5035175;28;20069;-91
2022/04/15 02:15:57;;;;;;;30.73;16.43;;;;;;;4.94;100.00;102400.22;5035201;28;20086;-91
2022/04/15 02:18:26;;;;;;;35.03;16.97;;;;;;;4.91;100.00;102403.25;5035353;28;20037;-91
2022/04/15 02:20:54;;;;;;;32.95;16.75;;;;;;;4.90;100.00;102407.75;5034995;28;20014;-90
2022/04/15 02:23:19;;;;;;;35.35;17.08;;;;;;;4.92;100.00;102412.88;5031831;28;20018;-91
2022/04/15 02:25:45;;;;;;;33.60;16.10;;;;;;;4.90;100.00;102412.22;5015042;28;20052;-90
2022/04/15 02:28:10;;;;;;;35.70;17.63;;;;;;;4.87;100.00;102416.06;5014527;28;20045;-91
2022/04/15 02:30:35;;;;;;;39.70;17.35;;;;;;;4.85;100.00;102418.88;5011836;28;20393;-91
2022/04/15 02:33:01;;;;;;;30.97;16.23;;;;;;;4.90;100.00;102421.03;5016568;28;20053;-92
2022/04/15 02:35:26;;;;;;;32.27;16.40;;;;;;;4.88;100.00;102417.72;5013189;28;20033;-91
2022/04/15 02:37:52;;;;;;;34.20;15.70;;;;;;;4.86;100.00;102422.38;5012687;28;20041;-91
2022/04/15 02:40:17;;;;;;;32.72;16.10;;;;;;;4.86;100.00;102419.72;5012239;28;20029;-91
2022/04/15 02:42:43;;;;;;;30.23;15.73;;;;;;;4.82;100.00;102429.06;5015379;28;20034;-92
2022/04/15 02:45:09;;;;;;;29.73;15.27;;;;;;;4.79;100.00;102434.72;5016680;28;20038;-92
2022/04/15 02:47:34;;;;;;;33.43;15.60;;;;;;;4.76;100.00;102429.75;5031152;28;20030;-91
2022/04/15 02:49:59;;;;;;;28.13;15.13;;;;;;;4.69;100.00;102430.50;5028187;28;20018;-91
2022/04/15 02:52:25;;;;;;;31.33;15.20;;;;;;;4.67;100.00;102435.16;5031846;28;20034;-91
2022/04/15 02:54:51;;;;;;;26.47;14.63;;;;;;;4.59;100.00;102432.56;5032367;28;20010;-92
2022/04/15 02:57:16;;;;;;;27.23;14.27;;;;;;;4.52;100.00;102426.31;5031419;28;20036;-92
2022/04/15 02:59:42;;;;;;;30.67;15.93;;;;;;;4.49;100.00;102435.44;5013556;28;20117;-91
2022/04/15 03:02:07;;;;;;;30.70;15.63;;;;;;;4.48;100.00;102433.00;5015335;28;20026;-91
2022/04/15 03:04:32;;;;;;;29.90;14.33;;;;;;;4.38;100.00;102426.06;5012743;28;20030;-91
2022/04/15 03:06:58;;;;;;;29.35;15.27;;;;;;;4.36;100.00;102430.75;5011266;28;20030;-91
2022/04/15 03:09:25;;;;;;;31.10;15.23;;;;;;;4.32;100.00;102433.91;5011693;28;20141;-90
2022/04/15 03:11:50;;;;;;;31.20;14.73;;;;;;;4.33;100.00;102431.09;5012763;28;20026;-92
2022/04/15 03:14:17;;;;;;;40.03;15.97;;;;;;;4.32;100.00;102432.09;5011422;28;20297;-91
2022/04/15 03:16:42;;;;;;;26.87;14.90;;;;;;;4.31;100.00;102432.25;5011019;28;20085;-90
2022/04/15 03:19:08;;;;;;;28.47;14.53;;;;;;;4.27;100.00;102421.19;5011164;28;20324;-91
2022/04/15 03:24:05;;;;;;;30.10;14.87;;;;;;;4.24;100.00;102429.50;4970459;28;20054;-90
2022/04/15 03:26:30;;;;;;;30.30;14.77;;;;;;;4.28;100.00;102432.66;4970436;28;20301;-91
2022/04/15 03:28:56;;;;;;;32.35;15.02;;;;;;;4.29;100.00;102435.09;4937016;28;20033;-90
2022/04/15 03:31:21;;;;;;;30.67;14.27;;;;;;;4.22;100.00;102429.69;4953805;28;20381;-91
2022/04/15 03:33:46;;;;;;;34.20;15.77;;;;;;;4.23;100.00;102425.19;4938575;28;20024;-91
2022/04/15 03:36:12;;;;;;;29.97;13.67;;;;;;;4.20;100.00;102436.19;4973093;28;20038;-90
2022/04/15 03:44:43;;;;;;;30.10;14.35;;;;;;;4.18;100.00;102443.47;5325485;22;20068;-90
2022/04/15 04:16:46;;;;;;;70.30;20.83;;;;;;;5.21;100.00;102465.22;4993389;28;20045;-93
2022/04/15 04:25:45;;;;;;;214.53;22.87;;;;;;;5.65;100.00;102471.56;5035461;28;20106;-92
2022/04/15 04:31:29;;;;;;;161.15;22.70;;;;;;;5.70;100.00;102463.88;5016937;28;20077;-90
2022/04/15 04:37:16;;;;;;;89.95;20.35;;;;;;;5.82;100.00;102476.69;5020685;22;20076;-94
2022/04/15 04:39:42;;;;;;;136.80;20.53;;;;;;;5.87;100.00;102483.09;5019354;23;20125;-93
2022/04/15 04:42:09;;;;;;;69.53;20.13;;;;;;;5.87;100.00;102485.75;5018710;28;20520;-94
2022/04/15 04:44:46;;;;;;;87.10;18.97;;;;;;;5.91;100.00;102497.69;5016228;28;20038;-95
2022/04/15 04:50:20;;;;;;;124.88;17.55;;;;;;;5.86;100.00;102509.91;5173647;22;20197;-96
2022/04/15 04:52:47;;;;;;;160.95;16.88;;;;;;;5.71;100.00;102491.28;5017431;28;20038;-96
2022/04/15 04:55:44;;;;;;;101.32;17.17;;;;;;;5.70;100.00;102506.44;5020684;28;20026;-96
2022/04/15 05:00:45;;;;;;;101.47;16.65;;;;;;;5.67;100.00;102496.16;5541714;22;20053;-96
2022/04/15 05:03:23;;;;;;;177.27;19.03;;;;;;;5.67;100.00;102500.63;5033050;28;20039;-94
2022/04/15 05:16:16;;;;;;;97.85;17.20;;;;;;;5.97;100.00;102532.56;4924519;29;20039;-96
2022/04/15 05:33:48;;;;;;;50.22;15.00;;;;;;;6.32;100.00;102554.13;5004010;28;20061;-94
2022/04/15 05:50:39;;;;;;;36.60;13.70;;;;;;;6.48;100.00;102567.22;5125651;22;20053;-90
2022/04/15 05:53:20;;;;;;;32.90;13.23;;;;;;;6.56;100.00;102568.94;5032047;28;20303;-91
2022/04/15 05:56:40;;;;;;;28.20;13.82;;;;;;;6.69;100.00;102594.06;5050595;28;20022;-90
2022/04/15 06:02:45;;;;;;;33.13;13.52;;;;;;;6.79;100.00;102599.94;5046326;28;20065;-90
2022/04/15 06:16:46;;;;;;;38.15;15.63;;;;;;;6.97;100.00;102618.13;5769669;22;20103;-89
2022/04/15 06:40:39;;;;;;;24.10;11.65;;;;;;;7.52;100.00;102638.94;5044947;22;20523;-88
2022/04/15 06:43:38;;;;;;;22.83;12.13;;;;;;;7.60;100.00;102645.97;5034903;28;20037;-89
2022/04/15 06:53:15;;;;;;;24.43;11.43;;;;;;;7.62;100.00;102631.44;5031686;28;20261;-87
2022/04/15 06:55:52;;;;;;;25.90;13.10;;;;;;;7.72;100.00;102657.81;5018343;28;20480;-86
2022/04/15 07:04:02;;;;;;;25.38;12.48;;;;;;;7.60;100.00;102644.16;5724339;22;20050;-87
2022/04/15 07:34:45;;;;;;;22.52;11.68;;;;;;;8.17;100.00;102668.16;5905650;22;20069;-86
2022/04/15 07:49:14;;;;;;;22.40;10.20;;;;;;;8.96;100.00;102673.25;5223750;22;20053;-87
2022/04/15 07:57:40;;;;;;;21.35;11.45;;;;;;;9.21;99.00;102693.06;5067624;22;20408;-87
2022/04/15 08:00:15;;;;;;;19.05;10.38;;;;;;;9.38;97.07;102688.19;5032444;28;20093;-87
2022/04/15 08:02:43;;;;;;;18.30;10.02;;;;;;;9.65;95.79;102692.72;5024871;28;20048;-89
2022/04/15 08:05:18;;;;;;;17.13;10.25;;;;;;;9.97;95.12;102691.03;5045846;28;20357;-87
2022/04/15 08:07:50;;;;;;;17.50;10.80;;;;;;;10.23;93.00;102693.88;5035552;28;20116;-88
2022/04/15 08:10:15;;;;;;;14.80;8.70;;;;;;;10.50;90.35;102694.66;5034733;28;20652;-88
2022/04/15 08:12:50;;;;;;;16.45;7.78;;;;;;;10.60;87.71;102689.69;5036063;28;20072;-88
2022/04/15 08:15:41;;;;;;;15.17;8.67;;;;;;;10.92;88.53;102699.66;5035179;28;20026;-93
2022/04/15 08:18:16;;;;;;;15.60;8.03;;;;;;;11.07;86.92;102691.31;5034558;28;20703;-88
2022/04/15 08:20:45;;;;;;;15.93;9.48;;;;;;;11.14;82.73;102685.91;5034733;28;20025;-93
2022/04/15 08:29:14;;;;;;;12.50;7.15;;;;;;;12.59;76.87;102695.81;5492000;22;20428;-92
2022/04/15 08:32:21;;;;;;;12.05;6.65;;;;;;;12.90;78.38;102704.72;5035253;28;20029;-90
2022/04/15 08:35:31;;;;;;;10.88;6.07;;;;;;;12.85;77.14;102703.53;5027443;28;20033;-95
2022/04/15 08:38:20;;;;;;;11.55;7.35;;;;;;;12.75;73.99;102684.44;5017240;28;20034;-91
2022/04/15 08:41:14;;;;;;;11.55;7.32;;;;;;;13.20;73.62;102698.50;5015834;28;20019;-87
2022/04/15 08:59:40;;;;;;;10.32;6.05;;;;;;;13.26;70.95;102714.53;5531977;22;20045;-95
2022/04/15 09:22:46;;;;;;;11.95;5.97;;;;;;;14.31;64.92;102730.25;5035713;28;20053;-92
2022/04/15 09:25:14;;;;;;;8.27;5.47;;;;;;;14.16;63.12;102711.84;5017584;28;20045;-91
2022/04/15 09:30:15;;;;;;;8.30;5.68;;;;;;;14.65;60.59;102733.09;5865293;22;20068;-93
2022/04/15 09:38:50;;;;;;;8.38;5.05;;;;;;;15.83;59.42;102739.00;5361085;22;20050;-90
2022/04/15 09:41:25;;;;;;;8.80;5.75;;;;;;;15.92;57.81;102741.31;5032487;28;20024;-91
2022/04/15 09:44:44;;;;;;;;;;;;;;;;;;;;;
2022/04/15 09:52:36;;;;;;;7.30;5.63;;;;;;;15.94;58.11;102747.28;5158719;22;20111;-88
2022/04/15 09:55:02;;;;;;;5.60;5.00;;;;;;;15.94;54.18;102736.47;5014653;28;20466;-87
2022/04/15 10:00:13;;;;;;;8.65;5.60;;;;;;;16.08;56.02;102735.06;5040409;22;20054;-87
2022/04/15 10:06:38;;;;;;;6.43;5.75;;;;;;;15.84;58.03;102756.03;4997336;28;20405;-89
2022/04/15 10:09:51;;;;;;;8.52;5.68;;;;;;;15.96;56.89;102739.75;5015066;28;20030;-89
2022/04/15 10:16:16;;;;;;;11.20;5.22;;;;;;;16.89;55.75;102743.66;4956971;28;20170;-92
2022/04/15 10:31:40;;;;;;;5.88;4.22;;;;;;;15.34;57.18;102749.56;5084058;22;20518;-91
2022/04/15 10:43:38;;;;;;;5.57;4.97;;;;;;;15.70;57.37;102723.13;5012673;28;20066;-91
2022/04/15 10:46:53;;;;;;;10.75;5.28;;;;;;;16.39;57.60;102730.09;5014019;28;20026;-91
2022/04/15 10:49:37;;;;;;;6.65;4.47;;;;;;;16.61;54.27;102724.66;5004308;28;20057;-90
2022/04/15 10:55:52;;;;;;;6.87;4.67;;;;;;;15.90;55.41;102723.44;5008762;28;20400;-88
2022/04/15 10:58:23;;;;;;;8.40;4.80;;;;;;;15.52;54.60;102707.97;4996039;28;20798;-89
2022/04/15 11:01:17;;;;;;;5.20;4.60;;;;;;;15.84;56.56;102724.44;5013144;28;20388;-90
2022/04/15 11:03:53;;;;;;;8.35;4.57;;;;;;;15.78;55.19;102722.72;5012869;28;20535;-88
2022/04/15 11:11:53;;;;;;;9.20;4.75;;;;;;;16.45;54.02;102722.84;5527424;22;20061;-88
2022/04/15 11:14:46;;;;;;;10.38;5.13;;;;;;;16.64;52.32;102724.16;4994424;28;20030;-89
2022/04/15 11:18:16;;;;;;;6.30;5.43;;;;;;;16.88;53.55;102710.38;4993590;28;20065;-89
2022/04/15 11:20:44;;;;;;;9.15;5.20;;;;;;;16.81;51.35;102709.72;4887129;29;20543;-86
2022/04/15 11:23:45;;;;;;;6.07;4.57;;;;;;;16.41;51.97;102719.84;4912549;29;20044;-88
2022/04/15 11:26:44;;;;;;;8.43;4.70;;;;;;;16.02;54.31;102704.44;4904737;29;20307;-88
2022/04/15 11:29:11;;;;;;;7.07;4.90;;;;;;;15.93;52.66;102721.31;4909709;29;20056;-89
2022/04/15 12:47:56;;;;;;;;;;;;;;;;;;;;;
2022/04/15 13:22:36;;;;;;;7.30;4.83;;;;;;;16.99;51.49;102710.50;5725316;22;20331;-92
2022/04/15 13:48:51;;;;;;;6.57;5.00;;;;;;;17.06;51.89;102722.75;5162199;22;20062;-92
2022/04/15 13:51:22;;;;;;;9.33;5.07;;;;;;;17.12;51.39;102714.69;4973668;28;20301;-87
2022/04/15 13:56:35;;;;;;;5.95;5.00;;;;;;;17.48;50.95;102713.09;5018350;28;20048;-88
2022/04/15 13:59:29;;;;;;;7.10;4.90;;;;;;;17.71;50.59;102716.53;5012796;28;20018;-86
2022/04/15 14:06:23;;;;;;;8.95;5.82;;;;;;;17.20;50.81;102731.28;4976647;28;20182;-89
2022/04/15 14:08:49;;;;;;;9.05;6.07;;;;;;;17.07;49.90;102710.84;5011880;28;20045;-89
2022/04/15 14:11:15;;;;;;;8.73;5.35;;;;;;;17.09;49.58;102719.53;5012664;28;20030;-88
2022/04/15 14:19:37;;;;;;;10.18;6.10;;;;;;;16.56;51.52;102726.50;6016016;22;20126;-87
2022/04/15 14:22:09;;;;;;;9.18;5.57;;;;;;;16.47;50.94;102710.69;5033488;28;20033;-89
2022/04/15 14:24:42;;;;;;;9.07;5.90;;;;;;;16.62;52.31;102717.34;5033120;28;20029;-89
2022/04/15 14:30:34;;;;;;;6.57;5.35;;;;;;;16.78;51.63;102721.06;5000559;28;20429;-88
2022/04/15 14:39:16;;;;;;;9.35;6.57;;;;;;;15.83;52.43;102714.69;4961440;28;20044;-88
2022/04/15 14:41:41;;;;;;;9.73;6.07;;;;;;;15.86;53.83;102716.09;5010516;28;20133;-87
2022/04/15 14:44:23;;;;;;;7.55;6.00;;;;;;;15.98;52.90;102713.28;5012203;28;20025;-89
2022/04/15 14:47:15;;;;;;;8.47;5.63;;;;;;;15.92;52.99;102700.75;5011614;28;20397;-89
2022/04/15 14:49:41;;;;;;;8.57;6.32;;;;;;;15.97;53.47;102709.78;5001992;28;20503;-88
2022/04/15 15:02:48;;;;;;;7.28;5.65;;;;;;;16.67;51.05;102720.13;4911660;28;20076;-86
2022/04/15 15:05:16;;;;;;;9.70;6.20;;;;;;;16.68;52.60;102716.34;5008793;28;20195;-84
2022/04/15 15:07:42;;;;;;;8.75;6.40;;;;;;;17.13;50.26;102727.16;5010679;28;20061;-82
2022/04/15 15:10:09;;;;;;;8.23;6.80;;;;;;;17.12;50.00;102730.94;5009601;28;20060;-82
2022/04/15 15:13:23;;;;;;;8.90;6.70;;;;;;;16.96;50.15;102728.06;4992238;28;20393;-82
2022/04/15 15:15:50;;;;;;;11.93;6.70;;;;;;;16.41;51.23;102733.38;5009458;28;20392;-87
2022/04/15 15:18:16;;;;;;;10.38;6.35;;;;;;;16.28;52.64;102721.03;4978882;28;20022;-82
2022/04/15 15:20:42;;;;;;;8.98;6.55;;;;;;;16.40;53.24;102730.88;5009067;28;20036;-82
2022/04/15 15:23:07;;;;;;;10.27;7.47;;;;;;;16.22;51.21;102743.66;5009554;28;20370;-82
2022/04/15 15:31:00;;;;;;;7.90;5.77;;;;;;;16.89;50.18;102733.63;5011721;28;20727;-88
2022/04/15 15:33:27;;;;;;;9.38;6.63;;;;;;;16.64;50.40;102747.69;5011632;28;20025;-87
2022/04/15 15:35:53;;;;;;;11.20;6.60;;;;;;;16.15;51.36;102741.13;4995239;28;20037;-90
2022/04/15 15:38:22;;;;;;;10.37;7.20;;;;;;;15.94;52.24;102731.91;5256607;22;20056;-91
2022/04/15 15:40:50;;;;;;;9.73;6.50;;;;;;;15.82;51.58;102748.19;5014697;28;20308;-91
2022/04/15 15:43:15;;;;;;;7.95;6.50;;;;;;;15.56;51.68;102750.47;5015627;28;20140;-93
2022/04/15 15:45:41;;;;;;;9.60;6.93;;;;;;;15.52;52.87;102754.72;5016401;28;20022;-92
2022/04/15 15:48:09;;;;;;;10.63;6.83;;;;;;;15.96;53.29;102750.56;5018373;28;20034;-91
2022/04/15 15:50:40;;;;;;;8.27;7.10;;;;;;;16.31;51.22;102744.03;5016551;28;20292;-91
2022/04/15 15:55:46;;;;;;;9.65;6.15;;;;;;;16.11;50.85;102736.47;5931149;22;20049;-96
2022/04/15 15:58:14;;;;;;;11.63;7.00;;;;;;;15.99;50.96;102736.56;5017327;28;20038;-94
2022/04/15 16:01:10;;;;;;;8.57;5.47;;;;;;;15.92;52.06;102742.16;5016397;28;20216;-92
2022/04/15 16:03:35;;;;;;;9.25;6.90;;;;;;;15.80;52.16;102735.97;4962203;29;20035;-92
2022/04/15 16:06:32;;;;;;;11.53;7.00;;;;;;;15.97;52.54;102736.81;4959799;29;20035;-95
2022/04/15 16:09:10;;;;;;;12.85;7.25;;;;;;;16.14;51.76;102750.31;4992367;28;20041;-91
2022/04/15 16:14:30;;;;;;;7.97;6.10;;;;;;;15.63;51.93;102749.50;4993815;28;20126;-92
2022/04/15 16:17:08;;;;;;;10.10;6.47;;;;;;;15.41;52.80;102747.50;5011421;28;20094;-88
2022/04/15 16:20:01;;;;;;;;;;;;;;;;;;;;;
2022/04/15 16:22:30;;;;;;;8.85;6.15;;;;;;;15.30;51.68;102754.59;5008918;28;20061;-85
2022/04/15 16:24:55;;;;;;;13.98;6.90;;;;;;;15.31;51.71;102758.94;5005805;28;20046;-86
2022/04/15 16:27:21;;;;;;;8.63;6.40;;;;;;;15.40;53.53;102762.91;4995199;28;20039;-85
2022/04/15 16:29:48;;;;;;;9.95;6.68;;;;;;;15.53;51.70;102755.53;4986921;28;20026;-87
2022/04/15 16:32:16;;;;;;;10.00;6.78;;;;;;;15.36;52.94;102752.81;4979294;28;20037;-88
2022/04/15 16:34:45;;;;;;;8.35;6.93;;;;;;;15.21;53.30;102753.38;5001262;28;20034;-88
2022/04/15 16:37:16;;;;;;;9.45;6.22;;;;;;;14.86;53.73;102752.44;4999283;28;20037;-89
2022/04/15 16:39:45;;;;;;;11.30;6.55;;;;;;;14.73;54.30;102758.13;4996640;28;20080;-87
2022/04/15 16:42:15;;;;;;;7.80;6.50;;;;;;;14.52;55.98;102760.34;4996169;28;20045;-88
2022/04/15 18:10:31;;;;;;;7.68;6.82;;;;;;;11.37;66.75;102790.03;4895959;29;20065;-89
2022/04/15 18:39:37;;;;;;;;;;;;;;;;;;;;;
2022/04/15 18:43:12;;;;;;;;;;;;;;;;;;;;;
2022/04/15 18:46:36;;;;;;;;;;;;;;;;;;;;;
2022/04/15 18:56:46;;;;;;;7.10;6.20;;;;;;;10.98;68.78;102808.75;5708018;22;21040;-88
2022/04/15 19:03:15;;;;;;;8.60;6.40;;;;;;;10.80;68.60;102800.56;5031078;22;20100;-89
2022/04/15 19:35:11;;;;;;;7.93;6.23;;;;;;;10.59;70.75;102854.25;4844843;29;20309;-89
2022/04/15 19:42:55;;;;;;;;;;;;;;;;;;;;;
2022/04/15 19:48:43;;;;;;;6.57;5.65;;;;;;;10.43;71.14;102858.16;4860369;29;20048;-89
2022/04/15 19:51:55;;;;;;;7.40;6.05;;;;;;;10.30;71.36;102868.88;4835248;29;20472;-89
2022/04/15 20:04:21;;;;;;;;;;;;;;;;;;;;;
2022/04/15 20:16:57;;;;;;;9.85;7.38;;;;;;;9.82;73.26;102886.72;5050609;22;20057;-89
2022/04/15 20:23:48;;;;;;;;;;;;;;;;;;;;;
2022/04/15 20:26:23;;;;;;;10.95;7.80;;;;;;;9.69;72.81;102871.47;4955306;28;20039;-89
2022/04/15 20:28:49;;;;;;;8.85;7.35;;;;;;;9.69;72.58;102881.31;4999260;28;20093;-89
2022/04/15 20:35:23;;;;;;;;;;;;;;;;;;;;;
2022/04/15 20:41:43;;;;;;;10.27;7.40;;;;;;;9.44;74.34;102881.88;4906651;29;20050;-89
2022/04/15 20:44:43;;;;;;;12.18;7.97;;;;;;;9.56;73.70;102900.88;4954204;29;20031;-88
2022/04/15 20:47:38;;;;;;;11.30;8.38;;;;;;;9.51;74.27;102898.75;4915767;29;20142;-88
2022/04/15 20:54:08;;;;;;;12.23;9.55;;;;;;;9.51;73.78;102901.44;4934198;29;20065;-89
2022/04/15 20:57:26;;;;;;;11.88;8.93;;;;;;;9.57;74.54;102899.00;4897209;29;20069;-89
2022/04/15 21:00:48;;;;;;;15.32;9.70;;;;;;;9.57;73.90;102907.88;4896983;29;20056;-89
2022/04/15 21:03:55;;;;;;;12.70;9.13;;;;;;;9.54;74.59;102901.03;4934575;29;20028;-89
2022/04/15 21:06:40;;;;;;;13.70;8.57;;;;;;;9.52;74.51;102904.97;4858330;29;20382;-89
2022/04/15 21:09:10;;;;;;;15.98;10.40;;;;;;;9.44;74.87;102895.25;4856740;29;20049;-89
2022/04/15 21:14:50;;;;;;;14.02;9.50;;;;;;;9.42;75.21;102889.28;4994003;28;20520;-89
2022/04/15 21:17:37;;;;;;;14.43;9.50;;;;;;;9.41;75.55;102884.94;5000523;28;20061;-88
2022/04/15 21:23:18;;;;;;;17.33;9.45;;;;;;;9.44;75.46;102900.59;4985902;28;20050;-89
2022/04/15 21:29:16;;;;;;;15.75;9.65;;;;;;;9.36;74.74;102892.72;4995385;28;20085;-89
2022/04/15 21:38:57;;;;;;;11.43;8.20;;;;;;;9.23;75.00;102886.31;4953120;29;20046;-89
2022/04/15 21:41:33;;;;;;;14.60;8.50;;;;;;;9.29;74.80;102894.56;4953732;29;20035;-89
2022/04/15 21:44:31;;;;;;;12.57;8.33;;;;;;;9.12;74.88;102880.69;4908296;29;20727;-89
2022/04/15 21:48:01;;;;;;;13.70;8.68;;;;;;;8.91;75.45;102879.72;4950870;29;20039;-89
2022/04/15 21:53:50;;;;;;;14.93;9.23;;;;;;;8.66;76.16;102876.69;4858740;29;20473;-89
2022/04/15 21:56:41;;;;;;;15.57;8.40;;;;;;;8.46;77.19;102875.50;4837768;29;20568;-89
2022/04/15 21:59:40;;;;;;;13.73;8.63;;;;;;;8.28;78.24;102883.97;4877272;29;20041;-89
2022/04/15 22:02:14;;;;;;;12.85;8.88;;;;;;;8.02;78.78;102872.03;4910789;29;20035;-89
2022/04/15 22:04:56;;;;;;;11.25;8.30;;;;;;;7.88;79.28;102870.22;4945581;28;20096;-88
2022/04/15 22:11:17;;;;;;;15.77;9.27;;;;;;;7.62;80.14;102870.75;4971369;28;20027;-89
2022/04/15 22:14:08;;;;;;;14.83;9.13;;;;;;;7.51;80.46;102877.38;4992326;28;20436;-88
2022/04/15 22:16:58;;;;;;;16.80;9.75;;;;;;;7.41;81.27;102881.19;4992604;28;20486;-88
2022/04/15 22:19:47;;;;;;;16.08;9.40;;;;;;;7.31;82.08;102872.63;5006628;28;20456;-88
2022/04/15 22:22:21;;;;;;;16.38;10.27;;;;;;;7.25;82.85;102871.53;5014113;28;20494;-88
2022/04/15 22:24:53;;;;;;;18.40;9.88;;;;;;;7.21;83.31;102880.91;5022011;28;20120;-89
2022/04/15 22:27:27;;;;;;;15.55;9.60;;;;;;;7.20;83.68;102897.09;5015458;28;20478;-88
2022/04/15 22:30:06;;;;;;;17.60;9.70;;;;;;;7.10;84.24;102889.38;5013919;28;20026;-88
2022/04/15 22:32:35;;;;;;;17.95;10.77;;;;;;;7.05;84.64;102894.44;5013797;28;20029;-88
2022/04/15 22:35:22;;;;;;;18.52;10.85;;;;;;;6.92;85.19;102877.25;5032728;22;20049;-88
2022/04/15 22:37:48;;;;;;;15.70;10.53;;;;;;;6.97;85.07;102895.34;5030383;28;20038;-88
2022/04/15 22:40:20;;;;;;;19.50;10.60;;;;;;;6.91;85.36;102890.75;5032887;28;20647;-88
2022/04/15 22:42:48;;;;;;;14.90;10.30;;;;;;;6.85;85.83;102896.81;5034440;28;20029;-88
2022/04/15 22:45:48;;;;;;;18.13;10.02;;;;;;;6.89;85.15;102903.44;5033588;28;20029;-87
2022/04/15 22:48:22;;;;;;;14.35;10.07;;;;;;;6.77;86.55;102889.72;5033479;28;20116;-87
2022/04/15 22:50:52;;;;;;;16.05;10.82;;;;;;;6.79;86.70;102893.03;5041019;28;20021;-88
2022/04/15 22:53:23;;;;;;;17.08;11.18;;;;;;;6.76;87.08;102904.06;5037117;28;20040;-88
2022/04/15 22:59:13;;;;;;;19.73;10.77;;;;;;;6.51;86.19;102894.44;5044419;28;20268;-87
2022/04/15 23:01:40;;;;;;;21.45;10.77;;;;;;;6.51;87.33;102912.25;5041034;28;20033;-88
2022/04/15 23:04:12;;;;;;;18.70;11.20;;;;;;;6.42;88.01;102895.50;5041859;28;20047;-88
2022/04/15 23:07:01;;;;;;;18.40;11.32;;;;;;;6.39;87.89;102897.72;5045303;28;20024;-87
2022/04/15 23:09:36;;;;;;;18.52;11.98;;;;;;;6.33;88.30;102900.06;5006644;28;20047;-87
2022/04/15 23:12:11;;;;;;;16.50;11.18;;;;;;;6.34;88.49;102911.56;5040956;28;20025;-88
2022/04/15 23:14:49;;;;;;;19.42;12.02;;;;;;;6.21;89.54;102897.00;5039001;28;20029;-88
2022/04/15 23:17:18;;;;;;;18.40;11.38;;;;;;;6.22;89.49;102909.31;5023884;28;20037;-88
2022/04/15 23:19:49;;;;;;;19.95;11.30;;;;;;;6.15;89.84;102907.53;5015946;28;20060;-89
2022/04/15 23:22:17;;;;;;;20.60;11.57;;;;;;;6.19;90.45;102915.00;5014218;28;20109;-88
2022/04/15 23:28:17;;;;;;;18.60;10.50;;;;;;;6.03;90.16;102904.44;5014040;28;20100;-89
2022/04/15 23:31:14;;;;;;;18.90;11.43;;;;;;;6.10;89.96;102907.25;5011053;28;20045;-89
2022/04/15 23:33:40;;;;;;;20.23;10.77;;;;;;;6.07;90.05;102911.06;5009180;28;20038;-88
2022/04/15 23:36:14;;;;;;;20.20;11.03;;;;;;;6.00;90.53;102904.81;5013942;28;20347;-88